Terminal Aerodrome Forecast
Issued by NWS St Louis, MO

Home | Current Version | Previous Version | Text Only | Print | Product List | Glossary On
Versions: 1 2 3 4 5 6 7 8 9 10 11 12 13 14 15 16 17 18 19 20 21
000
FTUS43 KLSX 181300 AAA
TAFCOU
TAF AMD
KCOU 181300Z 1813/1912 10005KT 3SM BR OVC004
      TEMPO 1813/1814 2SM BR
     FM181500 09008KT 5SM BR SCT007 OVC015
     FM181700 09008KT P6SM OVC022
     FM182000 09007KT P6SM BKN030
     FM182200 09007KT P6SM SCT040=

USA.gov is the U.S. government's official web portal to all federal, state and local government web resources and services.